Time;durP1;ratioP1;P1;durP2;ratioP2;P2;SDS_P1;SDS_P2;PMS_P1;PMS_P2;Temp;Humidity;BMP_temperature;BMP_pressure;BME280_temperature;BME280_humidity;BME280_pressure;Samples;Min_cycle;Max_cycle;Signal;HPM_P1;HPM_P2
2022/07/20 00:01:30;;;;;;;1999.90;999.90;;;;;;;24.59;37.14;95535.88;5027036;28;20025;-66
2022/07/20 00:03:55;;;;;;;1999.90;999.90;;;;;;;24.61;37.14;95550.63;5029119;28;20381;-66
2022/07/20 00:06:21;;;;;;;1999.90;999.90;;;;;;;24.47;37.41;95542.44;5032750;28;20061;-66
2022/07/20 00:11:30;;;;;;;1999.90;999.90;;;;;;;24.38;38.01;95545.53;5032695;28;20116;-66
2022/07/20 00:14:00;;;;;;;1999.90;999.90;;;;;;;24.28;38.12;95545.44;5031756;28;20473;-66
2022/07/20 00:16:29;;;;;;;1999.90;999.90;;;;;;;24.25;38.45;95546.19;5031586;28;20030;-65
2022/07/20 00:18:54;;;;;;;1999.90;999.90;;;;;;;24.14;38.63;95548.88;5032132;28;20030;-66
2022/07/20 00:21:19;;;;;;;1999.90;999.90;;;;;;;24.02;38.79;95527.47;5031558;28;20136;-66
2022/07/20 00:23:45;;;;;;;1999.90;999.90;;;;;;;23.96;39.04;95529.00;5031765;28;20025;-65
2022/07/20 00:26:11;;;;;;;1999.90;999.90;;;;;;;23.92;39.36;95534.41;5032142;28;20418;-66
2022/07/20 00:28:37;;;;;;;1999.90;999.90;;;;;;;23.89;39.35;95545.25;5014423;28;20036;-66
2022/07/20 00:31:02;;;;;;;1999.90;999.90;;;;;;;23.88;39.28;95540.97;5031094;28;20030;-66
2022/07/20 00:33:27;;;;;;;1999.90;999.90;;;;;;;23.85;39.53;95540.59;5013914;28;20025;-66
2022/07/20 00:35:53;;;;;;;1999.90;999.90;;;;;;;23.82;39.65;95533.19;5031962;28;20021;-65
2022/07/20 00:38:18;;;;;;;1999.90;999.90;;;;;;;23.75;39.72;95525.00;5032125;28;20022;-66
2022/07/20 00:40:44;;;;;;;1999.90;999.90;;;;;;;23.71;40.24;95526.94;5031935;28;20025;-66
2022/07/20 00:43:09;;;;;;;1999.90;999.90;;;;;;;23.77;39.74;95528.13;5030338;28;20049;-67
2022/07/20 00:45:34;;;;;;;1999.90;999.90;;;;;;;23.81;39.90;95528.94;5013041;28;20036;-66
2022/07/20 00:48:00;;;;;;;1999.90;999.90;;;;;;;23.83;39.89;95523.88;5031925;28;20018;-66
2022/07/20 00:50:25;;;;;;;1999.90;999.90;;;;;;;23.79;39.96;95536.66;5031737;28;20021;-66
2022/07/20 00:52:51;;;;;;;1999.90;999.90;;;;;;;23.69;40.22;95506.72;5029457;28;20033;-65
2022/07/20 00:55:16;;;;;;;1999.90;999.90;;;;;;;23.65;39.98;95514.88;5013738;28;20091;-65
2022/07/20 00:57:41;;;;;;;1999.90;999.90;;;;;;;23.66;40.38;95516.41;5031791;28;20116;-66
2022/07/20 01:00:08;;;;;;;1999.90;999.90;;;;;;;23.60;40.63;95515.19;5030489;28;20029;-66
2022/07/20 01:02:34;;;;;;;1999.90;999.90;;;;;;;23.58;40.80;95528.34;5013418;28;20037;-67
2022/07/20 01:04:59;;;;;;;1999.90;999.90;;;;;;;23.53;40.88;95517.84;5031429;28;20061;-66
2022/07/20 01:07:25;;;;;;;1999.90;999.90;;;;;;;23.51;41.19;95522.88;5013602;28;20025;-66
2022/07/20 01:09:51;;;;;;;1999.90;999.90;;;;;;;23.42;41.32;95509.63;5031536;28;20026;-65
2022/07/20 01:12:16;;;;;;;1999.90;999.90;;;;;;;23.31;41.66;95506.84;5029807;28;20389;-66
2022/07/20 01:14:42;;;;;;;1999.90;999.90;;;;;;;23.38;41.73;95516.19;5030015;28;20029;-66
2022/07/20 01:17:08;;;;;;;1999.90;999.90;;;;;;;23.38;41.78;95519.69;5012895;28;20031;-66
2022/07/20 01:19:33;;;;;;;1999.90;999.90;;;;;;;23.29;41.69;95509.16;5031174;28;20032;-66
2022/07/20 01:21:59;;;;;;;1999.90;999.90;;;;;;;23.28;41.93;95507.59;5013553;28;20029;-66
2022/07/20 01:24:24;;;;;;;1999.90;999.90;;;;;;;23.31;42.18;95512.28;5029746;28;20037;-65
2022/07/20 01:26:50;;;;;;;1999.90;999.90;;;;;;;23.29;41.96;95511.09;5013150;28;20025;-66
2022/07/20 01:29:15;;;;;;;1999.90;999.90;;;;;;;23.27;42.07;95502.53;5029039;28;20105;-65
2022/07/20 01:31:41;;;;;;;1999.90;999.90;;;;;;;23.20;42.30;95506.00;5031155;28;20026;-65
2022/07/20 01:34:06;;;;;;;1999.90;999.90;;;;;;;23.18;42.55;95516.41;5030516;28;20087;-66
2022/07/20 01:36:32;;;;;;;1999.90;999.90;;;;;;;23.22;42.58;95506.38;5012289;28;20179;-66
2022/07/20 01:38:57;;;;;;;1999.90;999.90;;;;;;;23.15;42.59;95500.91;5011218;28;20034;-66
2022/07/20 01:41:23;;;;;;;1999.90;999.90;;;;;;;23.13;43.01;95511.34;5030764;28;20018;-65
2022/07/20 01:43:48;;;;;;;1999.90;999.90;;;;;;;23.13;42.91;95513.28;5011626;28;20840;-65
2022/07/20 01:46:14;;;;;;;1999.90;999.90;;;;;;;23.02;43.41;95505.81;5030689;28;20104;-66
2022/07/20 01:48:40;;;;;;;1999.90;999.90;;;;;;;22.98;43.47;95507.75;5030783;28;20496;-66
2022/07/20 01:51:05;;;;;;;1999.90;999.90;;;;;;;22.93;43.32;95502.66;5030645;28;20405;-66
2022/07/20 01:53:31;;;;;;;1999.90;999.90;;;;;;;22.85;43.71;95492.88;5012536;28;20183;-66
2022/07/20 01:55:56;;;;;;;1999.90;999.90;;;;;;;22.83;43.78;95495.19;5029478;28;20029;-65
2022/07/20 01:58:22;;;;;;;1999.90;999.90;;;;;;;22.81;44.20;95506.38;5029496;28;20214;-67
2022/07/20 02:00:48;;;;;;;1999.90;999.90;;;;;;;22.77;44.08;95505.56;5012571;28;20646;-66
2022/07/20 02:03:13;;;;;;;1999.90;999.90;;;;;;;22.72;44.37;95500.50;5012181;28;20366;-65
2022/07/20 02:05:39;;;;;;;1999.90;999.90;;;;;;;22.73;44.30;95504.00;5030121;28;20072;-66
2022/07/20 02:08:04;;;;;;;1999.90;999.90;;;;;;;22.65;44.17;95486.88;5011684;28;20061;-66
2022/07/20 02:10:29;;;;;;;1999.90;999.90;;;;;;;22.78;44.31;95501.72;5012625;28;20052;-66
2022/07/20 02:12:55;;;;;;;1999.90;999.90;;;;;;;22.77;44.34;95508.28;5029401;28;20033;-65
2022/07/20 02:18:10;;;;;;;1999.90;999.90;;;;;;;22.69;44.52;95503.97;5010508;28;20092;-66
2022/07/20 02:20:35;;;;;;;1999.90;999.90;;;;;;;22.68;44.72;95501.63;5020056;28;20032;-65
2022/07/20 02:23:03;;;;;;;1999.90;999.90;;;;;;;22.60;44.74;95492.63;5029752;28;20398;-65
2022/07/20 02:25:29;;;;;;;1999.90;999.90;;;;;;;22.62;44.88;95505.81;5029781;28;20036;-65
2022/07/20 02:27:54;;;;;;;1999.90;999.90;;;;;;;22.48;45.25;95492.91;5028171;28;20029;-66
2022/07/20 02:30:19;;;;;;;1999.90;999.90;;;;;;;22.54;45.14;95499.56;5012061;28;20394;-65
2022/07/20 02:32:45;;;;;;;1999.90;999.90;;;;;;;22.53;45.24;95498.00;5029456;28;20021;-65
2022/07/20 02:35:10;;;;;;;1999.90;999.90;;;;;;;22.52;45.33;95496.41;5027752;28;20025;-65
2022/07/20 02:37:35;;;;;;;1999.90;999.90;;;;;;;22.43;45.67;95494.03;5012084;28;20018;-66
2022/07/20 02:40:01;;;;;;;1999.90;999.90;;;;;;;22.46;45.61;95490.56;5028832;28;20040;-65
2022/07/20 02:42:26;;;;;;;1999.90;999.90;;;;;;;22.54;45.62;95505.75;5011623;28;20072;-65
2022/07/20 02:44:51;;;;;;;1999.90;999.90;;;;;;;22.46;45.61;95498.69;5028445;28;20150;-66
2022/07/20 02:47:17;;;;;;;1999.90;999.90;;;;;;;22.42;45.54;95499.78;5029631;28;20557;-66
2022/07/20 02:49:42;;;;;;;1999.90;999.90;;;;;;;22.36;46.04;95502.06;5029507;28;20108;-65
2022/07/20 02:52:08;;;;;;;1999.90;999.90;;;;;;;22.35;46.08;95499.72;5009630;28;20032;-65
2022/07/20 02:54:33;;;;;;;1999.90;999.90;;;;;;;22.28;46.41;95493.09;5029436;28;20032;-65
2022/07/20 02:56:58;;;;;;;1999.90;999.90;;;;;;;22.29;46.44;95502.75;5011756;28;20134;-66
2022/07/20 02:59:24;;;;;;;1999.90;999.90;;;;;;;22.16;46.30;95479.00;5027581;28;20033;-66
2022/07/20 03:01:51;;;;;;;1999.90;999.90;;;;;;;22.26;46.75;95508.91;5029547;28;20029;-65
2022/07/20 03:04:16;;;;;;;1999.90;999.90;;;;;;;22.23;46.85;95509.66;5027891;28;20029;-65
2022/07/20 03:06:41;;;;;;;1999.90;999.90;;;;;;;22.24;46.79;95507.75;5029542;28;20146;-66
2022/07/20 03:09:07;;;;;;;1999.90;999.90;;;;;;;22.13;46.26;95493.28;5029457;28;20489;-66
2022/07/20 03:11:32;;;;;;;1999.90;999.90;;;;;;;22.17;47.10;95508.44;5029507;28;20021;-66
2022/07/20 03:13:57;;;;;;;1999.90;999.90;;;;;;;22.17;47.00;95505.72;5027891;28;20033;-66
2022/07/20 03:16:23;;;;;;;1999.90;999.90;;;;;;;22.19;46.86;95519.69;5029705;28;20037;-65
2022/07/20 03:18:48;;;;;;;1999.90;999.90;;;;;;;22.20;46.82;95507.69;5011609;28;20116;-65
2022/07/20 03:21:13;;;;;;;1999.90;999.90;;;;;;;22.20;46.77;95515.03;5011748;28;20022;-65
2022/07/20 03:23:39;;;;;;;1999.90;999.90;;;;;;;22.18;47.36;95518.13;5028880;28;20533;-65
2022/07/20 03:26:04;;;;;;;1999.90;999.90;;;;;;;22.14;47.22;95511.09;5027224;28;20484;-65
2022/07/20 03:28:29;;;;;;;1999.90;999.90;;;;;;;22.15;47.32;95512.66;5028353;28;20033;-65
2022/07/20 03:30:54;;;;;;;1999.90;999.90;;;;;;;22.08;47.29;95509.84;5029222;28;20539;-66
2022/07/20 03:33:20;;;;;;;1999.90;999.90;;;;;;;22.11;47.15;95517.25;5028951;28;20018;-65
2022/07/20 03:35:45;;;;;;;1999.90;999.90;;;;;;;22.15;47.18;95524.28;5010725;28;20022;-66
2022/07/20 03:38:10;;;;;;;1999.90;999.90;;;;;;;22.21;47.06;95511.94;5028746;28;20032;-66
2022/07/20 03:40:36;;;;;;;1999.90;999.90;;;;;;;22.17;47.16;95504.97;5032391;28;20029;-66
2022/07/20 03:43:01;;;;;;;1999.90;999.90;;;;;;;22.28;47.06;95505.84;5031521;28;20385;-65
2022/07/20 03:45:26;;;;;;;1999.90;999.90;;;;;;;22.33;46.87;95504.75;5032976;28;20088;-65
2022/07/20 03:47:52;;;;;;;1999.90;999.90;;;;;;;22.40;46.85;95507.53;5032093;28;20145;-65
2022/07/20 03:50:17;;;;;;;1999.90;999.90;;;;;;;22.46;46.61;95516.88;5032057;28;20029;-66
2022/07/20 03:52:42;;;;;;;1999.90;999.90;;;;;;;22.53;46.77;95519.69;5032528;28;20025;-66
2022/07/20 03:55:08;;;;;;;1999.90;999.90;;;;;;;22.53;46.64;95516.97;5031692;28;20029;-66
2022/07/20 03:57:33;;;;;;;1999.90;999.90;;;;;;;22.63;46.54;95516.31;5031781;28;20087;-65
2022/07/20 03:59:58;;;;;;;1999.90;999.90;;;;;;;22.64;46.64;95515.16;5031818;28;20120;-65
2022/07/20 04:02:24;;;;;;;1999.90;999.90;;;;;;;22.77;46.41;95521.84;5032616;28;20030;-65
2022/07/20 04:08:20;;;;;;;1999.90;999.90;;;;;;;22.94;45.94;95517.00;5030031;28;20080;-65
2022/07/20 04:10:45;;;;;;;1999.90;999.90;;;;;;;23.11;45.62;95513.66;5028885;28;20033;-66
2022/07/20 04:13:10;;;;;;;1999.90;999.90;;;;;;;23.38;45.49;95535.19;5013330;28;20021;-66
2022/07/20 04:15:36;;;;;;;1999.90;999.90;;;;;;;23.65;44.93;95536.59;5031972;28;20378;-66
2022/07/20 04:18:01;;;;;;;1999.90;999.90;;;;;;;23.96;43.77;95529.00;5014474;28;20036;-66
2022/07/20 04:20:26;;;;;;;1999.90;999.90;;;;;;;24.25;43.32;95524.47;5032391;28;20144;-65
2022/07/20 04:22:52;;;;;;;1999.90;999.90;;;;;;;24.48;42.75;95518.75;5030922;28;20079;-65
2022/07/20 04:25:18;;;;;;;1999.90;999.90;;;;;;;24.80;42.45;95519.59;5030416;28;21875;-65
2022/07/20 04:27:44;;;;;;;1999.90;999.90;;;;;;;25.11;41.87;95520.81;5031273;28;20036;-66
2022/07/20 04:30:10;;;;;;;1999.90;999.90;;;;;;;25.36;41.25;95520.81;5012725;28;20025;-65
2022/07/20 04:32:35;;;;;;;1999.90;999.90;;;;;;;25.52;40.70;95522.38;5029965;28;20029;-65
2022/07/20 04:35:00;;;;;;;1999.90;999.90;;;;;;;25.81;40.22;95523.13;5012562;28;20385;-65
2022/07/20 04:37:26;;;;;;;1999.90;999.90;;;;;;;25.93;39.85;95522.72;5031307;28;20041;-65
2022/07/20 04:39:51;;;;;;;1999.90;999.90;;;;;;;26.09;39.46;95527.72;5031849;28;20029;-65
2022/07/20 04:42:16;;;;;;;1999.90;999.90;;;;;;;26.18;39.70;95515.22;5012938;28;20025;-65
2022/07/20 04:44:41;;;;;;;1999.90;999.90;;;;;;;26.34;39.34;95527.63;5029341;28;20236;-66
2022/07/20 04:47:07;;;;;;;1999.90;999.90;;;;;;;26.50;38.44;95530.69;5012867;28;20079;-66
2022/07/20 04:49:32;;;;;;;1999.90;999.90;;;;;;;26.66;38.38;95544.63;5013469;28;20079;-65
2022/07/20 04:51:58;;;;;;;1999.90;999.90;;;;;;;26.71;38.11;95540.72;5029588;28;20036;-65
2022/07/20 04:54:23;;;;;;;1999.90;999.90;;;;;;;26.92;37.81;95528.88;5028815;28;20071;-65
2022/07/20 04:56:49;;;;;;;1999.90;999.90;;;;;;;27.08;37.37;95525.72;5013770;28;20026;-65
2022/07/20 04:59:14;;;;;;;1999.90;999.90;;;;;;;27.31;37.16;95527.88;5026275;28;20056;-65
2022/07/20 05:01:40;;;;;;;1999.90;999.90;;;;;;;27.56;36.48;95533.91;5025235;28;20032;-66
2022/07/20 05:04:06;;;;;;;1999.90;999.90;;;;;;;27.66;36.64;95538.47;5028375;28;20097;-65
2022/07/20 05:06:31;;;;;;;1999.90;999.90;;;;;;;27.59;36.79;95540.50;5030662;28;20057;-66
2022/07/20 05:08:56;;;;;;;1999.90;999.90;;;;;;;27.57;36.89;95535.44;5012831;28;20466;-67
2022/07/20 05:11:22;;;;;;;1999.90;999.90;;;;;;;27.66;36.78;95535.75;5030488;28;20041;-69
2022/07/20 05:13:47;;;;;;;1999.90;999.90;;;;;;;27.71;36.52;95540.03;5011665;28;20488;-70
2022/07/20 05:16:13;;;;;;;1999.90;999.90;;;;;;;27.69;36.78;95540.41;5029823;28;20037;-68
2022/07/20 05:18:38;;;;;;;1999.90;999.90;;;;;;;27.76;36.65;95542.31;5030755;28;20018;-76
2022/07/20 05:21:04;;;;;;;1999.90;999.90;;;;;;;27.81;36.83;95541.13;5011089;28;20025;-72
2022/07/20 05:23:29;;;;;;;1999.90;999.90;;;;;;;27.83;36.62;95531.31;5030346;28;20033;-71
2022/07/20 05:25:55;;;;;;;1999.90;999.90;;;;;;;27.84;36.63;95529.34;5029742;28;20501;-68
2022/07/20 05:28:21;;;;;;;1999.90;999.90;;;;;;;27.98;36.31;95543.66;5022947;28;20034;-70
2022/07/20 05:30:47;;;;;;;1999.90;999.90;;;;;;;28.08;36.59;95542.00;5011099;28;20482;-69
2022/07/20 05:33:13;;;;;;;1999.90;999.90;;;;;;;28.12;36.75;95533.75;5013216;28;20030;-68
2022/07/20 05:35:39;;;;;;;1999.90;999.90;;;;;;;28.18;36.44;95530.16;5029832;28;20029;-66
2022/07/20 05:38:05;;;;;;;1999.90;999.90;;;;;;;28.30;36.40;95530.78;5006265;28;20037;-66
2022/07/20 05:40:30;;;;;;;1999.90;999.90;;;;;;;28.39;36.43;95542.81;5011221;28;20481;-69
2022/07/20 05:42:55;;;;;;;1999.90;999.90;;;;;;;28.45;36.75;95537.69;4999083;28;20512;-69
2022/07/20 05:45:21;;;;;;;1999.90;999.90;;;;;;;28.45;36.20;95524.75;5012932;28;20796;-68
2022/07/20 05:47:46;;;;;;;1999.90;999.90;;;;;;;28.64;36.28;95545.25;5029726;28;20026;-69
2022/07/20 05:50:12;;;;;;;1999.90;999.90;;;;;;;28.70;35.94;95548.31;5010807;28;20072;-68
2022/07/20 05:52:37;;;;;;;1999.90;999.90;;;;;;;28.66;36.43;95542.09;5012142;28;20377;-68
2022/07/20 05:55:03;;;;;;;1999.90;999.90;;;;;;;28.59;36.47;95532.03;5029524;28;20494;-69
2022/07/20 05:57:28;;;;;;;1999.90;999.90;;;;;;;28.61;36.56;95545.28;5022041;28;20034;-69
2022/07/20 05:59:54;;;;;;;1999.90;999.90;;;;;;;28.43;36.25;95529.88;5029443;28;20137;-66
2022/07/20 06:02:19;;;;;;;1999.90;999.90;;;;;;;28.46;36.31;95553.72;5028863;28;20288;-66
2022/07/20 06:04:44;;;;;;;1999.90;999.90;;;;;;;28.63;36.38;95548.41;5015872;28;20079;-67
2022/07/20 06:07:10;;;;;;;1999.90;999.90;;;;;;;28.60;36.69;95549.22;5029417;28;20026;-69
2022/07/20 06:09:35;;;;;;;1999.90;999.90;;;;;;;28.56;36.63;95541.06;5029440;28;20037;-69
2022/07/20 06:12:01;;;;;;;1999.90;999.90;;;;;;;28.69;36.67;95553.00;5011686;28;20386;-69
2022/07/20 06:14:27;;;;;;;1999.90;999.90;;;;;;;28.72;36.33;95548.69;5009348;28;20029;-69
2022/07/20 06:16:52;;;;;;;1999.90;999.90;;;;;;;28.87;36.43;95558.25;5008790;28;20086;-69
2022/07/20 06:19:17;;;;;;;1999.90;999.90;;;;;;;28.82;36.86;95549.69;5010696;28;20108;-66
2022/07/20 06:21:43;;;;;;;1999.90;999.90;;;;;;;29.03;36.52;95548.69;5012084;28;20495;-66
2022/07/20 06:24:08;;;;;;;1999.90;999.90;;;;;;;29.19;36.38;95554.31;5029559;28;20374;-65
2022/07/20 06:26:34;;;;;;;1999.90;999.90;;;;;;;29.20;35.77;95534.69;5030255;28;20035;-65
2022/07/20 06:28:59;;;;;;;1999.90;999.90;;;;;;;29.42;36.20;95545.31;5011090;28;20040;-66
2022/07/20 06:31:24;;;;;;;1999.90;999.90;;;;;;;29.55;35.81;95543.56;5030278;28;20025;-66
2022/07/20 06:33:50;;;;;;;1999.90;999.90;;;;;;;29.59;35.51;95546.25;5029681;28;20033;-66
2022/07/20 06:36:16;;;;;;;1999.90;999.90;;;;;;;29.60;35.82;95545.06;5029478;28;20036;-66
2022/07/20 06:38:42;;;;;;;1999.90;999.90;;;;;;;29.24;35.86;95557.34;5030125;28;20025;-66
2022/07/20 06:41:07;;;;;;;1999.90;999.90;;;;;;;28.24;36.90;95550.41;5028819;28;20037;-67
2022/07/20 06:43:33;;;;;;;1999.90;999.90;;;;;;;28.63;36.95;95557.41;5010923;28;20108;-67
2022/07/20 06:45:58;;;;;;;1999.90;999.90;;;;;;;28.95;36.33;95554.25;5012101;28;20029;-67
2022/07/20 06:48:23;;;;;;;1999.90;999.90;;;;;;;29.32;36.18;95547.03;5030072;28;20060;-67
2022/07/20 06:50:49;;;;;;;1999.90;999.90;;;;;;;29.54;35.67;95557.69;5011185;28;20026;-67
2022/07/20 06:53:15;;;;;;;1999.90;999.90;;;;;;;29.33;35.96;95564.25;5010990;28;20676;-67
2022/07/20 06:55:40;;;;;;;1999.90;999.90;;;;;;;29.54;35.69;95554.97;5029862;28;20374;-67
2022/07/20 06:58:05;;;;;;;1999.90;999.90;;;;;;;29.85;35.24;95564.59;5011281;28;20030;-67
2022/07/20 07:00:31;;;;;;;1999.90;999.90;;;;;;;29.99;34.57;95561.59;5027541;28;20112;-68
2022/07/20 07:02:56;;;;;;;1999.90;999.90;;;;;;;29.21;35.41;95560.91;5029100;28;20060;-68
2022/07/20 07:05:22;;;;;;;1999.90;999.90;;;;;;;29.91;34.00;95565.66;5028829;28;20061;-68
2022/07/20 07:07:47;;;;;;;1999.90;999.90;;;;;;;29.86;33.30;95560.66;5011861;28;20145;-68
2022/07/20 07:10:13;;;;;;;1999.90;999.90;;;;;;;30.15;33.49;95558.19;5010865;28;20064;-68
2022/07/20 07:12:38;;;;;;;1999.90;999.90;;;;;;;30.33;32.95;95563.34;5029165;28;20053;-68
2022/07/20 07:15:04;;;;;;;1999.90;999.90;;;;;;;29.10;34.49;95567.75;5013525;28;20049;-68
2022/07/20 07:17:30;;;;;;;1999.90;999.90;;;;;;;29.36;33.92;95571.66;5033771;28;20436;-70
2022/07/20 07:19:59;;;;;;;1999.90;999.90;;;;;;;29.35;34.01;95567.38;5032939;28;20027;-68
2022/07/20 07:22:26;;;;;;;1999.90;999.90;;;;;;;29.51;33.68;95562.00;5014531;28;20033;-68
2022/07/20 07:24:51;;;;;;;1999.90;999.90;;;;;;;30.38;33.07;95565.59;5033217;28;20061;-68
2022/07/20 07:27:16;;;;;;;1999.90;999.90;;;;;;;30.32;33.30;95558.28;5033404;28;20147;-68
2022/07/20 07:29:42;;;;;;;1999.90;999.90;;;;;;;30.78;31.97;95563.63;5032321;28;20070;-68
2022/07/20 07:32:07;;;;;;;1999.90;999.90;;;;;;;30.50;32.10;95564.16;5015264;28;20029;-68
2022/07/20 07:34:32;;;;;;;1999.90;999.90;;;;;;;30.71;31.90;95555.53;5033238;28;20075;-68
2022/07/20 07:36:58;;;;;;;1999.90;999.90;;;;;;;31.04;31.38;95558.34;5032493;28;20381;-68
2022/07/20 07:39:23;;;;;;;1999.90;999.90;;;;;;;31.30;31.17;95549.13;5011497;28;20022;-68
2022/07/20 07:41:48;;;;;;;1999.90;999.90;;;;;;;31.61;30.85;95545.25;5012184;28;20511;-67
2022/07/20 07:44:14;;;;;;;1999.90;999.90;;;;;;;31.50;30.24;95545.53;5013297;28;20033;-68
2022/07/20 07:46:39;;;;;;;1999.90;999.90;;;;;;;31.41;30.90;95551.59;5015191;28;20026;-69
2022/07/20 07:49:05;;;;;;;1999.90;999.90;;;;;;;31.70;30.92;95551.69;5033089;28;20017;-67
2022/07/20 07:51:30;;;;;;;1999.90;999.90;;;;;;;31.91;30.24;95547.63;5030122;28;20025;-68
2022/07/20 07:53:56;;;;;;;1999.90;999.90;;;;;;;32.18;30.22;95546.53;5032656;28;20100;-69
2022/07/20 07:56:22;;;;;;;1999.90;999.90;;;;;;;31.62;30.04;95560.53;5032933;28;20095;-68
2022/07/20 07:58:47;;;;;;;1999.90;999.90;;;;;;;31.08;31.09;95558.28;5030538;28;20064;-68
2022/07/20 08:01:13;;;;;;;1999.90;999.90;;;;;;;31.45;30.01;95568.78;5031720;28;20029;-68
2022/07/20 08:03:38;;;;;;;1999.90;999.90;;;;;;;31.85;29.38;95554.09;5031508;28;20037;-67
2022/07/20 08:06:04;;;;;;;1999.90;999.90;;;;;;;31.65;29.74;95554.19;5031717;28;20561;-68
2022/07/20 08:08:30;;;;;;;1999.90;999.90;;;;;;;31.94;29.33;95566.03;5031844;28;20029;-68
2022/07/20 08:10:56;;;;;;;1999.90;999.90;;;;;;;31.17;29.64;95566.69;5028617;28;20029;-68
2022/07/20 08:13:21;;;;;;;1999.90;999.90;;;;;;;30.94;30.26;95551.88;5030630;28;20116;-68
2022/07/20 08:15:46;;;;;;;1999.90;999.90;;;;;;;31.76;29.35;95554.69;5014138;28;20155;-68
2022/07/20 08:18:12;;;;;;;1999.90;999.90;;;;;;;31.48;29.17;95548.69;5032655;28;20033;-69
2022/07/20 08:20:37;;;;;;;1999.90;999.90;;;;;;;32.41;28.70;95543.56;5031841;28;20029;-68
2022/07/20 08:23:02;;;;;;;1999.90;999.90;;;;;;;32.29;28.71;95558.00;5031220;28;20399;-69
2022/07/20 08:25:28;;;;;;;1999.90;999.90;;;;;;;32.53;28.06;95542.03;5013479;28;20389;-68
2022/07/20 08:27:53;;;;;;;1999.90;999.90;;;;;;;32.86;27.73;95565.47;5032543;28;20021;-68
2022/07/20 08:30:20;;;;;;;1999.90;999.90;;;;;;;33.50;27.14;95554.47;5031478;28;20025;-68
2022/07/20 08:32:45;;;;;;;1999.90;999.90;;;;;;;33.71;26.58;95553.00;5013395;28;20350;-68
2022/07/20 08:35:10;;;;;;;1999.90;999.90;;;;;;;33.26;26.58;95553.25;5032064;28;20071;-69
2022/07/20 08:37:37;;;;;;;1999.90;999.90;;;;;;;33.22;26.66;95547.06;5012461;28;20040;-69
2022/07/20 08:40:04;;;;;;;1999.90;999.90;;;;;;;32.68;26.48;95551.44;5014747;28;20036;-69
2022/07/20 08:42:29;;;;;;;1999.90;999.90;;;;;;;31.84;27.35;95542.34;5031781;28;20071;-69
2022/07/20 08:44:55;;;;;;;1999.90;999.90;;;;;;;32.59;27.10;95545.78;5013967;28;20029;-68
2022/07/20 08:47:24;;;;;;;1999.90;999.90;;;;;;;32.43;27.12;95543.13;5011808;28;20025;-69
2022/07/20 08:49:50;;;;;;;1999.90;999.90;;;;;;;32.03;27.54;95549.66;5031844;28;20028;-69
2022/07/20 08:52:17;;;;;;;1999.90;999.90;;;;;;;32.26;27.54;95543.16;5013214;28;20029;-68
2022/07/20 08:54:43;;;;;;;1999.90;999.90;;;;;;;32.62;26.79;95547.69;5014152;28;20028;-69
2022/07/20 08:57:09;;;;;;;1999.90;999.90;;;;;;;33.31;25.82;95553.47;5031825;28;20022;-69
2022/07/20 08:59:34;;;;;;;1999.90;999.90;;;;;;;33.53;26.10;95552.81;5030108;28;20105;-68
2022/07/20 09:02:03;;;;;;;1999.90;999.90;;;;;;;32.54;27.34;95551.84;5031164;28;20109;-69
2022/07/20 09:04:29;;;;;;;1999.90;999.90;;;;;;;33.22;26.64;95550.63;5031541;28;20029;-68
2022/07/20 09:06:54;;;;;;;1999.90;999.90;;;;;;;32.28;27.23;95548.22;5011790;28;20036;-69
2022/07/20 09:09:21;;;;;;;1999.90;999.90;;;;;;;32.37;27.15;95555.88;5013809;28;20075;-69
2022/07/20 09:11:48;;;;;;;1999.90;999.90;;;;;;;32.67;26.29;95549.91;5031738;28;20017;-70
2022/07/20 09:14:33;;;;;;;1999.90;999.90;;;;;;;32.33;26.27;95540.19;5031248;28;20544;-69
2022/07/20 09:16:59;;;;;;;1999.90;999.90;;;;;;;33.10;25.68;95543.13;5021711;28;20095;-70
2022/07/20 09:19:24;;;;;;;1999.90;999.90;;;;;;;32.87;26.12;95544.19;5012012;28;20026;-67
2022/07/20 09:21:49;;;;;;;1999.90;999.90;;;;;;;33.03;25.14;95557.13;5020008;28;20540;-68
2022/07/20 09:24:17;;;;;;;1999.90;999.90;;;;;;;32.38;26.06;95549.16;5031191;28;20739;-67
2022/07/20 09:26:43;;;;;;;1999.90;999.90;;;;;;;32.93;25.67;95552.72;5013885;28;20219;-67
2022/07/20 09:29:08;;;;;;;1999.90;999.90;;;;;;;33.49;24.89;95536.38;5031111;28;20552;-67
2022/07/20 09:31:36;;;;;;;1999.90;999.90;;;;;;;33.94;24.11;95540.81;5030237;28;20032;-67
2022/07/20 09:34:07;;;;;;;1999.90;999.90;;;;;;;34.16;24.06;95553.88;5030916;28;20029;-67
2022/07/20 09:36:36;;;;;;;1999.90;999.90;;;;;;;34.40;24.19;95538.41;5011999;28;20029;-67
2022/07/20 09:39:12;;;;;;;1999.90;999.90;;;;;;;33.74;26.14;95543.06;5029524;28;20022;-68
2022/07/20 09:41:39;;;;;;;1999.90;999.90;;;;;;;33.16;26.26;95555.13;5011696;28;20030;-69
2022/07/20 09:44:06;;;;;;;1999.90;999.90;;;;;;;33.45;25.67;95548.75;5027847;28;20047;-69
2022/07/20 09:46:37;;;;;;;1999.90;999.90;;;;;;;33.63;25.26;95533.16;5028267;28;20030;-68
2022/07/20 09:49:10;;;;;;;1999.90;999.90;;;;;;;34.04;25.02;95538.88;5029143;28;20029;-68
2022/07/20 09:51:39;;;;;;;1999.90;999.90;;;;;;;33.93;25.35;95542.00;5028632;28;20034;-70
2022/07/20 09:54:06;;;;;;;1999.90;999.90;;;;;;;34.25;24.64;95551.19;5029622;28;20072;-69
2022/07/20 09:56:33;;;;;;;1999.90;999.90;;;;;;;33.63;23.83;95555.22;5017774;28;20033;-69
2022/07/20 09:59:00;;;;;;;1999.90;999.90;;;;;;;33.92;22.90;95553.50;5009834;28;20025;-69
2022/07/20 10:01:28;;;;;;;1999.90;999.90;;;;;;;33.69;23.73;95562.94;5010969;28;20025;-69
2022/07/20 10:03:56;;;;;;;1999.90;999.90;;;;;;;33.37;23.49;95559.19;5029054;28;20030;-68
2022/07/20 10:06:24;;;;;;;1999.90;999.90;;;;;;;33.31;23.26;95549.94;5010918;28;20539;-68
2022/07/20 10:08:49;;;;;;;1999.90;999.90;;;;;;;33.76;22.72;95546.91;5011811;28;20022;-69
2022/07/20 10:11:18;;;;;;;1999.90;999.90;;;;;;;33.68;23.75;95548.38;5012573;28;20083;-69
2022/07/20 10:13:44;;;;;;;1999.90;999.90;;;;;;;34.26;23.16;95534.16;5028335;28;20530;-69
2022/07/20 10:16:38;;;;;;;1999.90;999.90;;;;;;;33.98;24.25;95544.22;5011866;28;20030;-69
2022/07/20 10:19:06;;;;;;;1999.90;999.90;;;;;;;34.29;23.16;95546.28;5012729;28;20033;-68
2022/07/20 10:21:31;;;;;;;1999.90;999.90;;;;;;;34.12;23.76;95548.47;5029308;28;20108;-69
2022/07/20 10:24:22;;;;;;;1999.90;999.90;;;;;;;34.24;23.70;95527.53;5012072;28;20499;-69
2022/07/20 10:27:07;;;;;;;1999.90;999.90;;;;;;;33.94;23.46;95554.63;5030236;28;20026;-70
2022/07/20 10:29:37;;;;;;;1999.90;999.90;;;;;;;33.96;22.21;95545.91;5011034;28;20059;-71
2022/07/20 10:32:22;;;;;;;1999.90;999.90;;;;;;;34.32;22.91;95546.19;5010570;28;20477;-70
2022/07/20 10:34:54;;;;;;;1999.90;999.90;;;;;;;34.48;22.48;95544.47;5030029;28;20037;-70
2022/07/20 10:37:41;;;;;;;1999.90;999.90;;;;;;;33.80;22.98;95560.59;5029390;28;20025;-73
2022/07/20 10:40:14;;;;;;;1999.90;999.90;;;;;;;33.85;23.47;95549.00;5012470;28;20035;-73
2022/07/20 10:43:16;;;;;;;1999.90;999.90;;;;;;;34.43;22.73;95540.25;5021892;28;20106;-73
2022/07/20 10:45:43;;;;;;;1999.90;999.90;;;;;;;34.24;22.96;95541.34;5010329;28;20026;-72
2022/07/20 10:48:11;;;;;;;1999.90;999.90;;;;;;;34.25;23.86;95542.91;5011337;28;20022;-69
2022/07/20 10:50:40;;;;;;;1999.90;999.90;;;;;;;34.25;24.17;95543.69;5011815;28;20025;-71
2022/07/20 10:53:11;;;;;;;1999.90;999.90;;;;;;;34.24;23.66;95541.34;5035624;23;20038;-66
2022/07/20 10:55:36;;;;;;;1999.90;999.90;;;;;;;34.34;23.35;95537.44;5045552;28;20393;-65
2022/07/20 10:58:14;;;;;;;1999.90;999.90;;;;;;;34.91;23.01;95532.59;5063973;28;20021;-66
2022/07/20 11:00:40;;;;;;;1999.90;999.90;;;;;;;34.05;22.69;95535.69;5047434;28;20119;-66